Time,TemperatureF,DewpointF,PressureIn,WindDirection,WindDirectionDegrees,WindSpeedMPH,WindSpeedGustMPH,Humidity,HourlyPrecipIn,Conditions,Clouds,dailyrainin,SoftwareType,DateUTC
2014-01-12 00:00:00,44.5,41.1,30.16,North,0,0.0,0.0,88,0.00,,,0.00,WUHU216HW,2014-01-12 08:00:00,
2014-01-12 00:05:00,44.3,41.0,30.15,North,0,0.0,0.0,88,0.00,,,0.00,WUHU216HW,2014-01-12 08:05:00,
2014-01-12 00:10:00,44.1,40.8,30.15,North,0,0.0,0.0,88,0.00,,,0.00,WUHU216HW,2014-01-12 08:10:00,
2014-01-12 00:15:00,43.9,40.6,30.16,North,0,0.0,0.0,88,0.00,,,0.00,WUHU216HW,2014-01-12 08:15:00,
2014-01-12 00:20:00,43.7,40.4,30.16,North,0,0.0,0.0,88,0.00,,,0.00,WUHU216HW,2014-01-12 08:20:00,
2014-01-12 00:25:00,43.7,40.4,30.16,North,0,0.0,0.0,88,0.00,,,0.00,WUHU216HW,2014-01-12 08:25:00,
2014-01-12 00:30:00,43.6,40.2,30.16,North,0,0.0,0.0,88,0.00,,,0.00,WUHU216HW,2014-01-12 08:30:00,
2014-01-12 00:35:00,43.6,40.2,30.16,North,0,0.0,0.0,88,0.00,,,0.00,WUHU216HW,2014-01-12 08:35:00,
2014-01-12 00:40:00,43.6,40.2,30.16,North,0,0.0,0.0,88,0.00,,,0.00,WUHU216HW,2014-01-12 08:40:00,
2014-01-12 00:45:00,43.4,40.1,30.16,North,0,0.0,0.0,88,0.00,,,0.00,WUHU216HW,2014-01-12 08:45:00,
2014-01-12 00:50:00,43.4,40.1,30.16,North,0,0.0,0.0,88,0.00,,,0.00,WUHU216HW,2014-01-12 08:50:00,
2014-01-12 00:55:00,43.2,39.6,30.16,North,0,0.0,0.0,87,0.00,,,0.00,WUHU216HW,2014-01-12 08:55:00,
2014-01-12 01:00:00,43.0,39.4,30.16,North,0,0.0,0.0,87,0.00,,,0.00,WUHU216HW,2014-01-12 09:00:00,
2014-01-12 01:05:00,42.8,39.3,30.16,North,0,0.0,0.0,87,0.00,,,0.00,WUHU216HW,2014-01-12 09:05:00,
2014-01-12 01:10:00,42.8,39.3,30.16,North,0,0.0,0.0,87,0.00,,,0.00,WUHU216HW,2014-01-12 09:10:00,
2014-01-12 01:16:00,42.7,39.1,30.16,North,0,0.0,0.0,87,0.00,,,0.00,WUHU216HW,2014-01-12 09:16:00,
2014-01-12 01:21:00,42.7,39.1,30.16,North,0,0.0,0.0,87,0.00,,,0.00,WUHU216HW,2014-01-12 09:21:00,
2014-01-12 01:26:00,42.5,38.9,30.16,North,0,0.0,0.0,87,0.00,,,0.00,WUHU216HW,2014-01-12 09:26:00,
2014-01-12 01:31:00,42.3,38.7,30.15,North,0,0.0,0.0,87,0.00,,,0.00,WUHU216HW,2014-01-12 09:31:00,
2014-01-12 01:36:00,42.3,38.7,30.16,North,0,0.0,0.0,87,0.00,,,0.00,WUHU216HW,2014-01-12 09:36:00,
2014-01-12 01:41:00,42.1,38.5,30.15,North,0,0.0,0.0,87,0.00,,,0.00,WUHU216HW,2014-01-12 09:41:00,
2014-01-12 01:46:00,42.1,38.5,30.15,North,0,0.0,0.0,87,0.00,,,0.00,WUHU216HW,2014-01-12 09:46:00,
2014-01-12 01:51:00,41.9,38.4,30.16,North,0,0.0,0.0,87,0.00,,,0.00,WUHU216HW,2014-01-12 09:51:00,
2014-01-12 01:56:00,41.9,38.4,30.16,North,0,0.0,0.0,87,0.00,,,0.00,WUHU216HW,2014-01-12 09:56:00,
2014-01-12 02:01:00,41.9,38.4,30.16,North,0,0.0,0.0,87,0.00,,,0.00,WUHU216HW,2014-01-12 10:01:00,
2014-01-12 02:06:00,41.8,38.2,30.16,North,0,0.0,0.0,87,0.00,,,0.00,WUHU216HW,2014-01-12 10:06:00,
2014-01-12 02:11:00,41.8,38.4,30.16,North,0,0.0,0.0,88,0.00,,,0.00,WUHU216HW,2014-01-12 10:11:00,
2014-01-12 02:16:00,41.8,38.4,30.16,North,0,0.0,0.0,88,0.00,,,0.00,WUHU216HW,2014-01-12 10:16:00,
2014-01-12 02:21:00,41.6,38.3,30.16,North,0,0.0,0.0,88,0.00,,,0.00,WUHU216HW,2014-01-12 10:21:00,
2014-01-12 02:26:00,41.4,38.1,30.16,North,0,0.0,0.0,88,0.00,,,0.00,WUHU216HW,2014-01-12 10:26:00,
2014-01-12 02:31:00,41.4,38.1,30.16,North,0,0.0,0.0,88,0.00,,,0.00,WUHU216HW,2014-01-12 10:31:00,
2014-01-12 02:36:00,41.4,38.1,30.16,North,0,0.0,0.0,88,0.00,,,0.00,WUHU216HW,2014-01-12 10:36:00,
2014-01-12 02:41:00,41.2,37.9,30.16,North,0,0.0,0.0,88,0.00,,,0.00,WUHU216HW,2014-01-12 10:41:00,
2014-01-12 02:46:00,41.0,37.7,30.16,North,0,0.0,0.0,88,0.00,,,0.00,WUHU216HW,2014-01-12 10:46:00,
2014-01-12 02:52:00,41.0,37.7,30.16,North,0,0.0,0.0,88,0.00,,,0.00,WUHU216HW,2014-01-12 10:52:00,
2014-01-12 02:57:00,41.0,37.7,30.16,North,0,0.0,0.0,88,0.01,,,0.01,WUHU216HW,2014-01-12 10:57:00,
2014-01-12 03:02:00,40.9,37.5,30.16,North,0,0.0,0.0,88,0.01,,,0.01,WUHU216HW,2014-01-12 11:02:00,
2014-01-12 03:07:00,40.9,37.5,30.16,North,0,0.0,0.0,88,0.01,,,0.01,WUHU216HW,2014-01-12 11:07:00,
2014-01-12 03:12:00,40.7,37.4,30.16,North,0,0.0,0.0,88,0.01,,,0.01,WUHU216HW,2014-01-12 11:12:00,
2014-01-12 03:17:00,40.7,37.7,30.16,North,0,0.0,0.0,89,0.01,,,0.01,WUHU216HW,2014-01-12 11:17:00,
2014-01-12 03:22:00,40.7,37.4,30.15,North,0,0.0,0.0,88,0.01,,,0.01,WUHU216HW,2014-01-12 11:22:00,
2014-01-12 03:27:00,40.3,37.0,30.15,North,0,0.0,0.0,88,0.01,,,0.01,WUHU216HW,2014-01-12 11:27:00,
2014-01-12 03:32:00,40.3,37.0,30.14,North,0,0.0,0.0,88,0.01,,,0.01,WUHU216HW,2014-01-12 11:32:00,
2014-01-12 03:37:00,40.3,37.4,30.14,North,0,0.0,0.0,89,0.01,,,0.01,WUHU216HW,2014-01-12 11:37:00,
2014-01-12 03:42:00,40.1,37.2,30.14,North,0,0.0,0.0,89,0.01,,,0.01,WUHU216HW,2014-01-12 11:42:00,
2014-01-12 03:47:00,40.1,37.2,30.14,North,0,0.0,0.0,89,0.01,,,0.01,WUHU216HW,2014-01-12 11:47:00,
2014-01-12 03:52:00,40.1,36.8,30.15,North,0,0.0,0.0,88,0.00,,,0.01,WUHU216HW,2014-01-12 11:52:00,
2014-01-12 03:57:00,40.0,37.0,30.15,North,0,0.0,0.0,89,0.00,,,0.01,WUHU216HW,2014-01-12 11:57:00,
2014-01-12 04:02:00,40.0,37.0,30.14,North,0,0.0,0.0,89,0.00,,,0.01,WUHU216HW,2014-01-12 12:02:00,
2014-01-12 04:07:00,40.0,36.6,30.14,North,0,0.0,0.0,88,0.00,,,0.01,WUHU216HW,2014-01-12 12:07:00,
2014-01-12 04:12:00,39.8,36.5,30.15,North,0,0.0,0.0,88,0.00,,,0.01,WUHU216HW,2014-01-12 12:12:00,
2014-01-12 04:17:00,39.8,36.5,30.15,North,0,0.0,0.0,88,0.00,,,0.01,WUHU216HW,2014-01-12 12:17:00,
2014-01-12 04:22:00,39.6,36.4,30.16,North,0,0.0,0.0,88,0.00,,,0.01,WUHU216HW,2014-01-12 12:22:00,
2014-01-12 04:27:00,39.8,36.5,30.16,North,0,0.0,0.0,88,0.00,,,0.01,WUHU216HW,2014-01-12 12:27:00,
2014-01-12 04:32:00,39.8,36.8,30.16,North,0,0.0,0.0,89,0.00,,,0.01,WUHU216HW,2014-01-12 12:32:00,
2014-01-12 04:38:00,39.6,36.6,30.16,North,0,0.0,0.0,89,0.00,,,0.01,WUHU216HW,2014-01-12 12:38:00,
2014-01-12 04:43:00,39.6,36.6,30.16,North,0,0.0,0.0,89,0.00,,,0.01,WUHU216HW,2014-01-12 12:43:00,
2014-01-12 04:48:00,39.6,36.6,30.16,North,0,0.0,0.0,89,0.00,,,0.01,WUHU216HW,2014-01-12 12:48:00,
2014-01-12 04:53:00,39.4,36.5,30.17,North,0,0.0,0.0,89,0.00,,,0.01,WUHU216HW,2014-01-12 12:53:00,
2014-01-12 04:58:00,39.4,36.5,30.17,North,0,0.0,0.0,89,0.00,,,0.01,WUHU216HW,2014-01-12 12:58:00,
2014-01-12 05:03:00,39.2,36.3,30.17,North,0,0.0,0.0,89,0.00,,,0.01,WUHU216HW,2014-01-12 13:03:00,
2014-01-12 05:08:00,39.2,36.3,30.18,North,0,0.0,0.0,89,0.00,,,0.01,WUHU216HW,2014-01-12 13:08:00,
2014-01-12 05:13:00,39.2,36.3,30.18,North,0,0.0,0.0,89,0.00,,,0.01,WUHU216HW,2014-01-12 13:13:00,
2014-01-12 05:18:00,39.2,36.5,30.18,North,0,0.0,0.0,90,0.00,,,0.01,WUHU216HW,2014-01-12 13:18:00,
2014-01-12 05:23:00,39.2,36.5,30.19,North,0,0.0,0.0,90,0.00,,,0.01,WUHU216HW,2014-01-12 13:23:00,
2014-01-12 05:28:00,39.2,36.5,30.19,North,0,0.0,0.0,90,0.00,,,0.01,WUHU216HW,2014-01-12 13:28:00,
2014-01-12 05:33:00,39.2,36.5,30.19,North,0,0.0,0.0,90,0.00,,,0.01,WUHU216HW,2014-01-12 13:33:00,
2014-01-12 05:38:00,39.2,36.5,30.19,North,0,0.0,0.0,90,0.00,,,0.01,WUHU216HW,2014-01-12 13:38:00,
2014-01-12 05:43:00,39.4,36.7,30.19,North,0,0.0,0.0,90,0.00,,,0.01,WUHU216HW,2014-01-12 13:43:00,
2014-01-12 05:48:00,39.4,36.7,30.19,North,0,0.0,0.0,90,0.00,,,0.01,WUHU216HW,2014-01-12 13:48:00,
2014-01-12 05:53:00,39.4,36.7,30.19,North,0,0.0,0.0,90,0.00,,,0.01,WUHU216HW,2014-01-12 13:53:00,
2014-01-12 05:59:00,39.4,36.7,30.19,North,0,0.0,0.0,90,0.00,,,0.01,WUHU216HW,2014-01-12 13:59:00,
2014-01-12 06:04:00,39.4,36.7,30.20,North,0,0.0,0.0,90,0.00,,,0.01,WUHU216HW,2014-01-12 14:04:00,
2014-01-12 06:09:00,39.4,36.7,30.19,North,0,0.0,0.0,90,0.00,,,0.01,WUHU216HW,2014-01-12 14:09:00,
2014-01-12 06:14:00,39.2,36.5,30.19,North,0,0.0,0.0,90,0.00,,,0.01,WUHU216HW,2014-01-12 14:14:00,
2014-01-12 06:19:00,39.2,36.5,30.20,North,0,0.0,0.0,90,0.00,,,0.01,WUHU216HW,2014-01-12 14:19:00,
2014-01-12 06:24:00,39.2,36.5,30.20,North,0,0.0,0.0,90,0.00,,,0.01,WUHU216HW,2014-01-12 14:24:00,
2014-01-12 06:29:00,39.1,36.4,30.20,North,0,0.0,0.0,90,0.00,,,0.01,WUHU216HW,2014-01-12 14:29:00,
2014-01-12 06:34:00,39.1,36.4,30.20,North,0,0.0,0.0,90,0.00,,,0.01,WUHU216HW,2014-01-12 14:34:00,
2014-01-12 06:39:00,39.1,36.6,30.20,North,0,0.0,0.0,91,0.00,,,0.01,WUHU216HW,2014-01-12 14:39:00,
2014-01-12 06:44:00,39.1,36.6,30.20,North,0,0.0,0.0,91,0.00,,,0.01,WUHU216HW,2014-01-12 14:44:00,
2014-01-12 06:49:00,39.2,36.8,30.20,North,0,0.0,0.0,91,0.00,,,0.01,WUHU216HW,2014-01-12 14:49:00,
2014-01-12 06:54:00,39.2,36.8,30.21,North,0,0.0,0.0,91,0.00,,,0.01,WUHU216HW,2014-01-12 14:54:00,
2014-01-12 06:59:00,39.4,37.0,30.21,North,0,0.0,0.0,91,0.00,,,0.01,WUHU216HW,2014-01-12 14:59:00,
2014-01-12 07:04:00,39.4,37.0,30.21,North,0,0.0,0.0,91,0.00,,,0.01,WUHU216HW,2014-01-12 15:04:00,
2014-01-12 07:09:00,39.6,37.2,30.21,North,0,0.0,0.0,91,0.00,,,0.01,WUHU216HW,2014-01-12 15:09:00,
2014-01-12 07:15:00,39.8,37.4,30.22,North,0,0.0,0.0,91,0.00,,,0.01,WUHU216HW,2014-01-12 15:15:00,
2014-01-12 07:20:00,40.0,37.5,30.22,North,0,0.0,0.0,91,0.00,,,0.01,WUHU216HW,2014-01-12 15:20:00,
2014-01-12 07:25:00,40.0,37.5,30.22,North,0,0.0,0.0,91,0.00,,,0.01,WUHU216HW,2014-01-12 15:25:00,
2014-01-12 07:30:00,40.0,37.5,30.22,North,0,0.0,0.0,91,0.00,,,0.01,WUHU216HW,2014-01-12 15:30:00,
2014-01-12 07:35:00,40.0,37.5,30.22,North,0,0.0,0.0,91,0.00,,,0.01,WUHU216HW,2014-01-12 15:35:00,
2014-01-12 07:40:00,40.0,37.5,30.22,North,0,0.0,0.0,91,0.00,,,0.01,WUHU216HW,2014-01-12 15:40:00,
2014-01-12 07:45:00,40.0,37.5,30.22,North,0,0.0,0.0,91,0.00,,,0.01,WUHU216HW,2014-01-12 15:45:00,
2014-01-12 07:50:00,40.0,37.5,30.22,North,0,0.0,0.0,91,0.00,,,0.01,WUHU216HW,2014-01-12 15:50:00,
2014-01-12 07:55:00,40.0,37.8,30.23,North,0,0.0,0.0,92,0.00,,,0.01,WUHU216HW,2014-01-12 15:55:00,
2014-01-12 08:00:00,40.1,37.7,30.23,North,0,0.0,0.0,91,0.00,,,0.01,WUHU216HW,2014-01-12 16:00:00,
2014-01-12 08:05:00,40.1,37.7,30.23,North,0,0.0,0.0,91,0.00,,,0.01,WUHU216HW,2014-01-12 16:05:00,
2014-01-12 08:10:00,40.3,38.2,30.24,North,0,0.0,0.0,92,0.00,,,0.01,WUHU216HW,2014-01-12 16:10:00,
2014-01-12 08:15:00,40.3,38.2,30.24,North,0,0.0,0.0,92,0.00,,,0.01,WUHU216HW,2014-01-12 16:15:00,
2014-01-12 08:20:00,40.5,38.3,30.24,North,0,0.0,0.0,92,0.00,,,0.01,WUHU216HW,2014-01-12 16:20:00,
2014-01-12 08:25:00,40.5,38.3,30.25,North,0,0.0,0.0,92,0.00,,,0.01,WUHU216HW,2014-01-12 16:25:00,
2014-01-12 08:30:00,40.7,38.5,30.25,North,0,0.0,0.0,92,0.00,,,0.01,WUHU216HW,2014-01-12 16:30:00,
2014-01-12 08:35:00,40.9,38.7,30.25,North,0,0.0,0.0,92,0.00,,,0.01,WUHU216HW,2014-01-12 16:35:00,
2014-01-12 08:41:00,40.9,38.7,30.25,North,0,0.0,0.0,92,0.00,,,0.01,WUHU216HW,2014-01-12 16:41:00,
2014-01-12 08:46:00,41.0,38.9,30.25,North,0,0.0,0.0,92,0.00,,,0.01,WUHU216HW,2014-01-12 16:46:00,
2014-01-12 08:51:00,41.0,38.9,30.26,North,0,0.0,0.0,92,0.00,,,0.01,WUHU216HW,2014-01-12 16:51:00,
2014-01-12 08:56:00,41.0,38.9,30.26,North,0,0.0,0.0,92,0.00,,,0.01,WUHU216HW,2014-01-12 16:56:00,
2014-01-12 09:01:00,41.0,38.9,30.26,North,0,0.0,0.0,92,0.00,,,0.01,WUHU216HW,2014-01-12 17:01:00,
2014-01-12 09:06:00,41.2,39.1,30.26,North,0,0.0,0.0,92,0.00,,,0.01,WUHU216HW,2014-01-12 17:06:00,
2014-01-12 09:11:00,41.4,39.2,30.26,North,0,0.0,0.0,92,0.00,,,0.01,WUHU216HW,2014-01-12 17:11:00,
2014-01-12 09:16:00,41.4,39.2,30.27,North,0,0.0,0.0,92,0.00,,,0.01,WUHU216HW,2014-01-12 17:16:00,
2014-01-12 09:21:00,41.8,39.6,30.28,North,0,0.0,0.0,92,0.00,,,0.01,WUHU216HW,2014-01-12 17:21:00,
2014-01-12 09:26:00,41.9,39.8,30.27,North,0,0.0,0.0,92,0.00,,,0.01,WUHU216HW,2014-01-12 17:26:00,
2014-01-12 09:31:00,41.9,39.8,30.28,North,0,0.0,0.0,92,0.00,,,0.01,WUHU216HW,2014-01-12 17:31:00,
2014-01-12 09:36:00,42.1,40.2,30.28,North,0,0.0,0.0,93,0.00,,,0.01,WUHU216HW,2014-01-12 17:36:00,
2014-01-12 09:41:00,42.3,40.4,30.28,North,0,0.0,0.0,93,0.00,,,0.01,WUHU216HW,2014-01-12 17:41:00,
2014-01-12 09:46:00,42.5,40.6,30.27,North,0,0.0,0.0,93,0.00,,,0.01,WUHU216HW,2014-01-12 17:46:00,
2014-01-12 09:51:00,42.5,40.6,30.27,North,0,0.0,0.0,93,0.00,,,0.01,WUHU216HW,2014-01-12 17:51:00,
2014-01-12 09:56:00,42.5,40.6,30.28,North,0,0.0,0.0,93,0.00,,,0.01,WUHU216HW,2014-01-12 17:56:00,
2014-01-12 10:01:00,42.8,41.0,30.27,North,0,0.0,0.0,93,0.00,,,0.01,WUHU216HW,2014-01-12 18:01:00,
2014-01-12 10:07:00,43.0,41.1,30.27,North,0,0.0,0.0,93,0.00,,,0.01,WUHU216HW,2014-01-12 18:07:00,
2014-01-12 10:12:00,43.4,41.5,30.27,North,0,0.0,0.0,93,0.00,,,0.01,WUHU216HW,2014-01-12 18:12:00,
2014-01-12 10:17:00,43.7,41.9,30.27,North,0,0.0,0.0,93,0.00,,,0.01,WUHU216HW,2014-01-12 18:17:00,
2014-01-12 10:22:00,43.9,42.0,30.27,North,0,0.0,0.0,93,0.00,,,0.01,WUHU216HW,2014-01-12 18:22:00,
2014-01-12 10:27:00,44.1,42.2,30.28,North,0,0.0,0.0,93,0.00,,,0.01,WUHU216HW,2014-01-12 18:27:00,
2014-01-12 10:32:00,44.3,42.4,30.27,North,0,0.0,0.0,93,0.00,,,0.01,WUHU216HW,2014-01-12 18:32:00,
2014-01-12 10:37:00,44.5,42.6,30.27,North,0,0.0,0.0,93,0.00,,,0.01,WUHU216HW,2014-01-12 18:37:00,
2014-01-12 10:42:00,44.6,42.8,30.27,North,0,0.0,0.0,93,0.00,,,0.01,WUHU216HW,2014-01-12 18:42:00,
2014-01-12 10:47:00,45.0,43.1,30.26,North,0,0.0,0.0,93,0.00,,,0.01,WUHU216HW,2014-01-12 18:47:00,
2014-01-12 10:52:00,45.4,43.5,30.26,North,0,0.0,0.0,93,0.00,,,0.01,WUHU216HW,2014-01-12 18:52:00,
2014-01-12 10:57:00,45.4,43.5,30.26,North,0,0.0,0.0,93,0.00,,,0.01,WUHU216HW,2014-01-12 18:57:00,
2014-01-12 11:02:00,45.7,43.8,30.27,North,0,0.0,0.0,93,0.00,,,0.01,WUHU216HW,2014-01-12 19:02:00,
2014-01-12 11:07:00,45.9,44.3,30.27,North,0,0.0,0.0,94,0.00,,,0.01,WUHU216HW,2014-01-12 19:07:00,
2014-01-12 11:12:00,46.3,44.6,30.26,North,0,0.0,0.0,94,0.00,,,0.01,WUHU216HW,2014-01-12 19:12:00,
2014-01-12 11:17:00,46.8,45.2,30.26,North,0,0.0,0.0,94,0.00,,,0.01,WUHU216HW,2014-01-12 19:17:00,
2014-01-12 11:22:00,47.2,45.3,30.26,North,0,0.0,0.0,93,0.00,,,0.01,WUHU216HW,2014-01-12 19:22:00,
2014-01-12 11:27:00,47.9,46.0,30.25,North,0,0.0,0.0,93,0.00,,,0.01,WUHU216HW,2014-01-12 19:27:00,
2014-01-12 11:32:00,48.2,46.1,30.24,North,0,0.0,0.0,92,0.00,,,0.01,WUHU216HW,2014-01-12 19:32:00,
2014-01-12 11:37:00,48.6,46.2,30.24,North,0,0.0,0.0,91,0.00,,,0.01,WUHU216HW,2014-01-12 19:37:00,
2014-01-12 11:43:00,49.3,46.5,30.24,North,0,0.0,0.0,90,0.00,,,0.01,WUHU216HW,2014-01-12 19:43:00,
2014-01-12 11:48:00,49.7,46.5,30.24,North,0,0.0,0.0,89,0.00,,,0.01,WUHU216HW,2014-01-12 19:48:00,
2014-01-12 11:53:00,50.2,46.7,30.24,North,0,0.0,0.0,88,0.00,,,0.01,WUHU216HW,2014-01-12 19:53:00,
2014-01-12 11:58:00,50.8,46.6,30.23,North,0,0.0,0.0,86,0.00,,,0.01,WUHU216HW,2014-01-12 19:58:00,
2014-01-12 12:03:00,51.1,47.0,30.23,North,0,0.0,0.0,86,0.00,,,0.01,WUHU216HW,2014-01-12 20:03:00,
2014-01-12 12:08:00,51.7,47.0,30.23,North,0,0.0,0.0,84,0.00,,,0.01,WUHU216HW,2014-01-12 20:08:00,
2014-01-12 12:13:00,52.2,47.2,30.22,North,0,0.0,0.0,83,0.00,,,0.01,WUHU216HW,2014-01-12 20:13:00,
2014-01-12 12:18:00,52.6,47.3,30.23,North,0,0.0,0.0,82,0.00,,,0.01,WUHU216HW,2014-01-12 20:18:00,
2014-01-12 12:23:00,53.1,46.8,30.22,North,0,0.0,0.0,79,0.00,,,0.01,WUHU216HW,2014-01-12 20:23:00,
2014-01-12 12:28:00,53.8,47.2,30.22,North,0,0.0,0.0,78,0.00,,,0.01,WUHU216HW,2014-01-12 20:28:00,
2014-01-12 12:33:00,54.4,47.0,30.22,North,0,0.0,0.0,76,0.00,,,0.01,WUHU216HW,2014-01-12 20:33:00,
2014-01-12 12:38:00,54.9,47.1,30.21,North,0,0.0,0.0,75,0.00,,,0.01,WUHU216HW,2014-01-12 20:38:00,
2014-01-12 12:43:00,55.4,47.3,30.21,North,0,0.0,0.0,74,0.00,,,0.01,WUHU216HW,2014-01-12 20:43:00,
2014-01-12 12:48:00,55.8,47.3,30.21,North,0,0.0,0.0,73,0.00,,,0.01,WUHU216HW,2014-01-12 20:48:00,
2014-01-12 12:53:00,56.2,46.9,30.21,North,0,0.0,0.0,71,0.00,,,0.01,WUHU216HW,2014-01-12 20:53:00,
2014-01-12 12:58:00,56.5,46.9,30.21,North,0,0.0,0.0,70,0.00,,,0.01,WUHU216HW,2014-01-12 20:58:00,
2014-01-12 13:03:00,56.9,46.5,30.21,North,0,0.0,0.0,68,0.00,,,0.01,WUHU216HW,2014-01-12 21:03:00,
2014-01-12 13:08:00,57.1,46.2,30.20,North,0,0.0,0.0,67,0.00,,,0.01,WUHU216HW,2014-01-12 21:08:00,
2014-01-12 13:13:00,57.4,46.5,30.20,North,0,0.0,0.0,67,0.00,,,0.01,WUHU216HW,2014-01-12 21:13:00,
2014-01-12 13:18:00,57.6,46.3,30.20,North,0,0.0,0.0,66,0.00,,,0.01,WUHU216HW,2014-01-12 21:18:00,
2014-01-12 13:23:00,58.0,45.8,30.20,North,0,0.0,0.0,64,0.00,,,0.01,WUHU216HW,2014-01-12 21:23:00,
2014-01-12 13:28:00,58.1,45.6,30.19,North,0,0.0,0.0,63,0.00,,,0.01,WUHU216HW,2014-01-12 21:28:00,
2014-01-12 13:34:00,58.5,45.9,30.19,North,0,0.0,0.0,63,0.00,,,0.01,WUHU216HW,2014-01-12 21:34:00,
2014-01-12 13:39:00,58.7,45.7,30.19,North,0,0.0,0.0,62,0.00,,,0.01,WUHU216HW,2014-01-12 21:39:00,
2014-01-12 13:44:00,58.9,45.5,30.19,North,0,0.0,0.0,61,0.00,,,0.01,WUHU216HW,2014-01-12 21:44:00,
2014-01-12 13:49:00,59.0,46.0,30.19,North,0,0.0,0.0,62,0.00,,,0.01,WUHU216HW,2014-01-12 21:49:00,
2014-01-12 13:54:00,59.2,46.2,30.19,North,0,0.0,0.0,62,0.00,,,0.01,WUHU216HW,2014-01-12 21:54:00,
2014-01-12 13:59:00,59.2,44.9,30.19,North,0,0.0,0.0,59,0.00,,,0.01,WUHU216HW,2014-01-12 21:59:00,
2014-01-12 14:04:00,59.2,43.9,30.19,North,0,0.0,0.0,57,0.00,,,0.01,WUHU216HW,2014-01-12 22:04:00,
2014-01-12 14:09:00,59.4,43.2,30.19,North,0,0.0,0.0,55,0.00,,,0.01,WUHU216HW,2014-01-12 22:09:00,
2014-01-12 14:14:00,59.4,42.8,30.19,North,0,0.0,0.0,54,0.00,,,0.01,WUHU216HW,2014-01-12 22:14:00,
2014-01-12 14:19:00,59.4,41.8,30.19,North,0,0.0,0.0,52,0.00,,,0.01,WUHU216HW,2014-01-12 22:19:00,
2014-01-12 14:24:00,59.4,41.3,30.19,North,0,0.0,0.0,51,0.00,,,0.01,WUHU216HW,2014-01-12 22:24:00,
2014-01-12 14:29:00,59.4,41.3,30.18,North,0,0.0,0.0,51,0.00,,,0.01,WUHU216HW,2014-01-12 22:29:00,
2014-01-12 14:34:00,59.4,41.3,30.18,North,0,0.0,0.0,51,0.00,,,0.01,WUHU216HW,2014-01-12 22:34:00,
2014-01-12 14:39:00,59.2,41.1,30.19,North,0,0.0,0.0,51,0.00,,,0.01,WUHU216HW,2014-01-12 22:39:00,
2014-01-12 14:44:00,59.4,41.3,30.18,North,0,0.0,0.0,51,0.00,,,0.01,WUHU216HW,2014-01-12 22:44:00,
2014-01-12 14:49:00,59.2,40.7,30.18,North,0,0.0,0.0,50,0.00,,,0.01,WUHU216HW,2014-01-12 22:49:00,
2014-01-12 14:54:00,59.4,40.9,30.18,North,0,0.0,0.0,50,0.00,,,0.01,WUHU216HW,2014-01-12 22:54:00,
2014-01-12 14:59:00,59.4,40.9,30.18,North,0,0.0,0.0,50,0.00,,,0.01,WUHU216HW,2014-01-12 22:59:00,
2014-01-12 15:04:00,59.6,40.4,30.19,North,0,0.0,0.0,49,0.00,,,0.01,WUHU216HW,2014-01-12 23:04:00,
2014-01-12 15:09:00,59.6,39.2,30.19,North,0,0.0,0.0,47,0.00,,,0.01,WUHU216HW,2014-01-12 23:09:00,
2014-01-12 15:14:00,59.8,40.0,30.19,North,0,0.0,0.0,48,0.00,,,0.01,WUHU216HW,2014-01-12 23:14:00,
2014-01-12 15:20:00,59.8,39.4,30.19,North,0,0.0,0.0,47,0.00,,,0.01,WUHU216HW,2014-01-12 23:20:00,
2014-01-12 15:25:00,59.6,39.2,30.19,North,0,0.0,0.0,47,0.00,,,0.01,WUHU216HW,2014-01-12 23:25:00,
2014-01-12 15:30:00,59.6,39.2,30.19,North,0,0.0,0.0,47,0.00,,,0.01,WUHU216HW,2014-01-12 23:30:00,
2014-01-12 15:35:00,59.4,39.1,30.20,North,0,0.0,0.0,47,0.00,,,0.01,WUHU216HW,2014-01-12 23:35:00,
2014-01-12 15:40:00,59.6,39.2,30.19,North,0,0.0,0.0,47,0.00,,,0.01,WUHU216HW,2014-01-12 23:40:00,
2014-01-12 15:45:00,59.4,38.5,30.19,North,0,0.0,0.0,46,0.00,,,0.01,WUHU216HW,2014-01-12 23:45:00,
2014-01-12 15:50:00,59.4,38.0,30.19,North,0,0.0,0.0,45,0.00,,,0.01,WUHU216HW,2014-01-12 23:50:00,
2014-01-12 15:55:00,59.2,37.8,30.19,North,0,0.0,0.0,45,0.00,,,0.01,WUHU216HW,2014-01-12 23:55:00,
2014-01-12 16:00:00,59.2,38.3,30.19,North,0,0.0,0.0,46,0.00,,,0.01,WUHU216HW,2014-01-13 00:00:00,
2014-01-12 16:05:00,59.2,39.0,30.19,North,0,0.0,0.0,47,0.00,,,0.01,WUHU216HW,2014-01-13 00:05:00,
2014-01-12 16:10:00,59.0,38.2,30.19,North,0,0.0,0.0,46,0.00,,,0.01,WUHU216HW,2014-01-13 00:10:00,
2014-01-12 16:15:00,59.0,38.2,30.19,North,0,0.0,0.0,46,0.00,,,0.01,WUHU216HW,2014-01-13 00:15:00,
2014-01-12 16:20:00,58.9,38.1,30.19,North,0,0.0,0.0,46,0.00,,,0.01,WUHU216HW,2014-01-13 00:20:00,
2014-01-12 16:25:00,58.7,37.9,30.19,North,0,0.0,0.0,46,0.00,,,0.01,WUHU216HW,2014-01-13 00:25:00,
2014-01-12 16:30:00,58.7,37.9,30.18,North,0,0.0,0.0,46,0.00,,,0.01,WUHU216HW,2014-01-13 00:30:00,
2014-01-12 16:35:00,58.5,37.7,30.19,North,0,0.0,0.0,46,0.00,,,0.01,WUHU216HW,2014-01-13 00:35:00,
2014-01-12 16:40:00,58.5,37.7,30.19,North,0,0.0,0.0,46,0.00,,,0.01,WUHU216HW,2014-01-13 00:40:00,
2014-01-12 16:46:00,58.3,38.2,30.19,North,0,0.0,0.0,47,0.00,,,0.01,WUHU216HW,2014-01-13 00:46:00,
2014-01-12 16:51:00,58.0,38.3,30.19,North,0,0.0,0.0,48,0.00,,,0.01,WUHU216HW,2014-01-13 00:51:00,
2014-01-12 16:56:00,57.6,38.6,30.19,North,0,0.0,0.0,49,0.00,,,0.01,WUHU216HW,2014-01-13 00:56:00,
2014-01-12 17:01:00,57.2,38.9,30.19,North,0,0.0,0.0,50,0.00,,,0.01,WUHU216HW,2014-01-13 01:01:00,
2014-01-12 17:06:00,57.1,38.7,30.19,North,0,0.0,0.0,50,0.00,,,0.01,WUHU216HW,2014-01-13 01:06:00,
2014-01-12 17:11:00,56.5,38.6,30.19,North,0,0.0,0.0,51,0.00,,,0.01,WUHU216HW,2014-01-13 01:11:00,
2014-01-12 17:16:00,56.2,38.3,30.19,North,0,0.0,0.0,51,0.00,,,0.01,WUHU216HW,2014-01-13 01:16:00,
2014-01-12 17:21:00,55.6,37.7,30.19,North,0,0.0,0.0,51,0.00,,,0.01,WUHU216HW,2014-01-13 01:21:00,
2014-01-12 17:26:00,55.3,37.9,30.19,North,0,0.0,0.0,52,0.00,,,0.01,WUHU216HW,2014-01-13 01:26:00,
2014-01-12 17:31:00,54.9,37.5,30.19,North,0,0.0,0.0,52,0.00,,,0.01,WUHU216HW,2014-01-13 01:31:00,
2014-01-12 17:36:00,54.4,37.5,30.20,North,0,0.0,0.0,53,0.00,,,0.01,WUHU216HW,2014-01-13 01:36:00,
2014-01-12 17:41:00,54.0,37.6,30.20,North,0,0.0,0.0,54,0.00,,,0.01,WUHU216HW,2014-01-13 01:41:00,
2014-01-12 17:46:00,53.6,37.4,30.20,North,0,0.0,0.0,54,0.00,,,0.01,WUHU216HW,2014-01-13 01:46:00,
2014-01-12 17:51:00,53.3,37.4,30.20,North,0,0.0,0.0,55,0.00,,,0.01,WUHU216HW,2014-01-13 01:51:00,
2014-01-12 17:56:00,52.9,37.1,30.20,North,0,0.0,0.0,55,0.00,,,0.01,WUHU216HW,2014-01-13 01:56:00,
2014-01-12 18:01:00,52.4,37.1,30.20,North,0,0.0,0.0,56,0.00,,,0.01,WUHU216HW,2014-01-13 02:01:00,
2014-01-12 18:07:00,52.2,36.9,30.20,North,0,0.0,0.0,56,0.00,,,0.01,WUHU216HW,2014-01-13 02:07:00,
2014-01-12 18:12:00,52.0,37.2,30.20,North,0,0.0,0.0,57,0.00,,,0.01,WUHU216HW,2014-01-13 02:12:00,
2014-01-12 18:17:00,51.7,36.8,30.20,North,0,0.0,0.0,57,0.00,,,0.01,WUHU216HW,2014-01-13 02:17:00,
2014-01-12 18:22:00,51.5,36.6,30.19,North,0,0.0,0.0,57,0.00,,,0.01,WUHU216HW,2014-01-13 02:22:00,
2014-01-12 18:27:00,51.1,36.8,30.20,North,0,0.0,0.0,58,0.00,,,0.01,WUHU216HW,2014-01-13 02:27:00,
2014-01-12 18:32:00,50.8,36.5,30.20,North,0,0.0,0.0,58,0.00,,,0.01,WUHU216HW,2014-01-13 02:32:00,
2014-01-12 18:37:00,50.4,36.6,30.20,North,0,0.0,0.0,59,0.00,,,0.01,WUHU216HW,2014-01-13 02:37:00,
2014-01-12 18:42:00,50.0,36.3,30.20,North,0,0.0,0.0,59,0.00,,,0.01,WUHU216HW,2014-01-13 02:42:00,
2014-01-12 18:47:00,50.0,36.7,30.20,North,0,0.0,0.0,60,0.00,,,0.01,WUHU216HW,2014-01-13 02:47:00,
2014-01-12 18:52:00,49.7,36.4,30.21,North,0,0.0,0.0,60,0.00,,,0.01,WUHU216HW,2014-01-13 02:52:00,
2014-01-12 18:57:00,49.5,36.6,30.21,North,0,0.0,0.0,61,0.00,,,0.01,WUHU216HW,2014-01-13 02:57:00,
2014-01-12 19:02:00,49.3,36.5,30.21,North,0,0.0,0.0,61,0.00,,,0.01,WUHU216HW,2014-01-13 03:02:00,
2014-01-12 19:07:00,49.0,36.1,30.21,North,0,0.0,0.0,61,0.00,,,0.01,WUHU216HW,2014-01-13 03:07:00,
2014-01-12 19:13:00,48.6,35.8,30.21,North,0,0.0,0.0,61,0.00,,,0.01,WUHU216HW,2014-01-13 03:13:00,
2014-01-12 19:18:00,48.4,35.6,30.20,North,0,0.0,0.0,61,0.00,,,0.01,WUHU216HW,2014-01-13 03:18:00,
2014-01-12 19:23:00,48.2,35.5,30.20,North,0,0.0,0.0,61,0.00,,,0.01,WUHU216HW,2014-01-13 03:23:00,
2014-01-12 19:28:00,48.1,35.6,30.21,North,0,0.0,0.0,62,0.00,,,0.01,WUHU216HW,2014-01-13 03:28:00,
2014-01-12 19:33:00,47.9,35.5,30.21,North,0,0.0,0.0,62,0.00,,,0.01,WUHU216HW,2014-01-13 03:33:00,
2014-01-12 19:38:00,47.7,35.4,30.21,North,0,0.0,0.0,62,0.00,,,0.01,WUHU216HW,2014-01-13 03:38:00,
2014-01-12 19:43:00,47.5,35.2,30.21,North,0,0.0,0.0,62,0.00,,,0.01,WUHU216HW,2014-01-13 03:43:00,
2014-01-12 19:48:00,47.2,35.2,30.21,North,0,0.0,0.0,63,0.00,,,0.01,WUHU216HW,2014-01-13 03:48:00,
2014-01-12 19:53:00,47.0,35.0,30.21,North,0,0.0,0.0,63,0.00,,,0.01,WUHU216HW,2014-01-13 03:53:00,
2014-01-12 19:58:00,46.6,35.1,30.21,North,0,0.0,0.0,64,0.00,,,0.01,WUHU216HW,2014-01-13 03:58:00,
2014-01-12 20:03:00,46.4,34.9,30.21,North,0,0.0,0.0,64,0.00,,,0.01,WUHU216HW,2014-01-13 04:03:00,
2014-01-12 20:08:00,46.4,34.9,30.21,North,0,0.0,0.0,64,0.00,,,0.01,WUHU216HW,2014-01-13 04:08:00,
2014-01-12 20:13:00,46.3,34.8,30.21,North,0,0.0,0.0,64,0.00,,,0.01,WUHU216HW,2014-01-13 04:13:00,
2014-01-12 20:18:00,46.1,34.6,30.21,North,0,0.0,0.0,64,0.00,,,0.01,WUHU216HW,2014-01-13 04:18:00,
2014-01-12 20:23:00,45.9,34.7,30.21,North,0,0.0,0.0,65,0.00,,,0.01,WUHU216HW,2014-01-13 04:23:00,
2014-01-12 20:28:00,45.7,34.6,30.22,North,0,0.0,0.0,65,0.00,,,0.01,WUHU216HW,2014-01-13 04:28:00,
2014-01-12 20:33:00,45.5,34.8,30.21,North,0,0.0,0.0,66,0.00,,,0.01,WUHU216HW,2014-01-13 04:33:00,
2014-01-12 20:38:00,45.4,34.7,30.21,North,0,0.0,0.0,66,0.00,,,0.01,WUHU216HW,2014-01-13 04:38:00,
2014-01-12 20:44:00,45.2,34.5,30.21,North,0,0.0,0.0,66,0.00,,,0.01,WUHU216HW,2014-01-13 04:44:00,
2014-01-12 20:49:00,45.0,34.3,30.21,North,0,0.0,0.0,66,0.00,,,0.01,WUHU216HW,2014-01-13 04:49:00,
2014-01-12 20:54:00,45.0,34.7,30.21,North,0,0.0,0.0,67,0.00,,,0.01,WUHU216HW,2014-01-13 04:54:00,
2014-01-12 20:59:00,44.6,34.3,30.21,North,0,0.0,0.0,67,0.00,,,0.01,WUHU216HW,2014-01-13 04:59:00,
2014-01-12 21:01:00,44.6,34.3,30.22,North,0,0.0,0.0,67,0.00,,,0.01,WUHU216HW,2014-01-13 05:01:00,
2014-01-12 21:02:00,44.6,34.3,30.22,North,0,0.0,0.0,67,0.00,,,0.01,WUHU216HW,2014-01-13 05:02:00,
2014-01-12 21:07:00,44.5,34.2,30.22,North,0,0.0,0.0,67,0.00,,,0.01,WUHU216HW,2014-01-13 05:07:00,
2014-01-12 21:12:00,44.3,34.4,30.22,North,0,0.0,0.0,68,0.00,,,0.01,WUHU216HW,2014-01-13 05:12:00,
2014-01-12 21:17:00,43.9,34.0,30.21,North,0,0.0,0.0,68,0.00,,,0.01,WUHU216HW,2014-01-13 05:17:00,
2014-01-12 21:22:00,43.9,34.0,30.22,North,0,0.0,0.0,68,0.00,,,0.01,WUHU216HW,2014-01-13 05:22:00,
2014-01-12 21:27:00,43.7,34.3,30.22,North,0,0.0,0.0,69,0.00,,,0.01,WUHU216HW,2014-01-13 05:27:00,
2014-01-12 21:32:00,43.6,34.1,30.23,North,0,0.0,0.0,69,0.00,,,0.01,WUHU216HW,2014-01-13 05:32:00,
2014-01-12 21:37:00,43.4,33.9,30.22,North,0,0.0,0.0,69,0.00,,,0.01,WUHU216HW,2014-01-13 05:37:00,
2014-01-12 21:42:00,43.2,33.8,30.22,North,0,0.0,0.0,69,0.00,,,0.01,WUHU216HW,2014-01-13 05:42:00,
2014-01-12 21:47:00,43.2,33.8,30.22,North,0,0.0,0.0,69,0.00,,,0.01,WUHU216HW,2014-01-13 05:47:00,
2014-01-12 21:52:00,43.0,33.6,30.22,North,0,0.0,0.0,69,0.00,,,0.01,WUHU216HW,2014-01-13 05:52:00,
2014-01-12 21:58:00,42.8,33.8,30.23,North,0,0.0,0.0,70,0.00,,,0.01,WUHU216HW,2014-01-13 05:58:00,
2014-01-12 22:03:00,42.7,33.7,30.23,North,0,0.0,0.0,70,0.00,,,0.01,WUHU216HW,2014-01-13 06:03:00,
2014-01-12 22:08:00,42.5,33.5,30.23,North,0,0.0,0.0,70,0.00,,,0.01,WUHU216HW,2014-01-13 06:08:00,
2014-01-12 22:13:00,42.5,33.9,30.23,North,0,0.0,0.0,71,0.00,,,0.01,WUHU216HW,2014-01-13 06:13:00,
2014-01-12 22:18:00,42.3,33.7,30.23,North,0,0.0,0.0,71,0.00,,,0.01,WUHU216HW,2014-01-13 06:18:00,
2014-01-12 22:23:00,42.1,33.5,30.23,North,0,0.0,0.0,71,0.00,,,0.01,WUHU216HW,2014-01-13 06:23:00,
2014-01-12 22:28:00,42.1,33.5,30.23,North,0,0.0,0.0,71,0.00,,,0.01,WUHU216HW,2014-01-13 06:28:00,
2014-01-12 22:33:00,41.9,33.3,30.23,North,0,0.0,0.0,71,0.00,,,0.01,WUHU216HW,2014-01-13 06:33:00,
2014-01-12 22:38:00,41.9,33.3,30.23,North,0,0.0,0.0,71,0.00,,,0.01,WUHU216HW,2014-01-13 06:38:00,
2014-01-12 22:43:00,41.8,33.1,30.23,North,0,0.0,0.0,71,0.00,,,0.01,WUHU216HW,2014-01-13 06:43:00,
2014-01-12 22:48:00,41.8,33.1,30.24,North,0,0.0,0.0,71,0.00,,,0.01,WUHU216HW,2014-01-13 06:48:00,
2014-01-12 22:53:00,41.6,33.0,30.23,North,0,0.0,0.0,71,0.00,,,0.01,WUHU216HW,2014-01-13 06:53:00,
2014-01-12 22:58:00,41.4,32.8,30.23,North,0,0.0,0.0,71,0.00,,,0.01,WUHU216HW,2014-01-13 06:58:00,
2014-01-12 23:03:00,41.4,33.0,30.24,North,0,0.0,0.0,72,0.00,,,0.01,WUHU216HW,2014-01-13 07:03:00,
2014-01-12 23:08:00,41.4,33.0,30.23,North,0,0.0,0.0,72,0.00,,,0.01,WUHU216HW,2014-01-13 07:08:00,
2014-01-12 23:13:00,41.4,33.0,30.23,North,0,0.0,0.0,72,0.00,,,0.01,WUHU216HW,2014-01-13 07:13:00,
2014-01-12 23:18:00,41.4,33.0,30.24,North,0,0.0,0.0,72,0.00,,,0.01,WUHU216HW,2014-01-13 07:18:00,
2014-01-12 23:23:00,41.4,33.0,30.24,North,0,0.0,0.0,72,0.00,,,0.01,WUHU216HW,2014-01-13 07:23:00,
2014-01-12 23:29:00,41.4,33.0,30.23,North,0,0.0,0.0,72,0.00,,,0.01,WUHU216HW,2014-01-13 07:29:00,
2014-01-12 23:34:00,41.2,32.9,30.23,North,0,0.0,0.0,72,0.00,,,0.01,WUHU216HW,2014-01-13 07:34:00,
2014-01-12 23:39:00,41.2,32.9,30.23,North,0,0.0,0.0,72,0.00,,,0.01,WUHU216HW,2014-01-13 07:39:00,
2014-01-12 23:44:00,41.0,32.7,30.23,North,0,0.0,0.0,72,0.00,,,0.01,WUHU216HW,2014-01-13 07:44:00,
2014-01-12 23:49:00,41.0,33.0,30.23,North,0,0.0,0.0,73,0.00,,,0.01,WUHU216HW,2014-01-13 07:49:00,
2014-01-12 23:54:00,41.0,33.0,30.23,North,0,0.0,0.0,73,0.00,,,0.01,WUHU216HW,2014-01-13 07:54:00,
2014-01-12 23:59:00,41.0,33.0,30.23,North,0,0.0,0.0,73,0.00,,,0.01,WUHU216HW,2014-01-13 07:59:00,